Patten, ME (04765)

7:59 PM EDT on July 06, 2015 (GMT -0400)
Sunnyside Family Farm - Ferme Ensoleillee Familiale | | Change Station
CLOSE
Current Station
Personal Weather Station
Location: Linneus, ME
Elevation: 594 ft
Nearby Weather Stations

Elev 594 ft 46.07 °N, 67.99 °W | Updated 3 minutes ago

Partly Cloudy
Partly Cloudy
72.4 °F
Feels Like 74 °F
N
0.0
Wind Variable Wind from South
Gusts 3.0 mph

Today
High -- | Low -- °F
--% Chance of Precip.
Yesterday
High -- | Low -- °F
Precip. -- in
4:49 AM 8:26 PM
Waning Gibbous, 71% visible
Pressure 30.09 in
Visibility 10.0 miles
Clouds Clear
Heat Index 74 °F
Dew Point 63 °F
Humidity 72%
Rainfall 0.00 in
Snow Depth Not available.
UV 0 out of 12
Pollen 4.30 out of 12
Air Quality Not available.
Flu Activity Not available.
METAR KMLT 062353Z AUTO 00000KT 10SM CLR 24/17 A3008 RMK AO2 SLP190 T02390167 10294 20239 55007

More Conditions Fewer Conditions

Pressure 30.09 in
Visibility 10.0 miles
Clouds Clear
Heat Index 74 °F
Dew Point 63 °F
Humidity 72%
Rainfall 0.00 in
Snow Depth Not available.
UV 0 out of 12
Pollen 4.30 out of 12
Air Quality Not available.
Flu Activity Not available.
METAR KMLT 062353Z AUTO 00000KT 10SM CLR 24/17 A3008 RMK AO2 SLP190 T02390167 10294 20239 55007

More Conditions Fewer Conditions

10-Day Weather Forecast

×

Almanac

Astronomy

Jul. 06, 2015 Rise Set
Actual Time
Civil Twilight
Nautical Twilight
Astronomical Twilight
Moon
Length of Visible Light
Length of Day
Tomorrow will be .
, % of the Moon is Illuminated

Today's Extremes

State Highs State Lows

Community

WunderPhotos

Upload Photos

1,835,688 photos uploaded!

WunderBlogs® & News

Nearby

Air Quality

  Air Quality AQ Index Pollutant
Not available.

Snow Depth

Station Depth Elevation

Earthquake Activity

City Distance Mag. Time & Date
Minimum magnitude displayed is 2.5.

Coastal Water Temperatures

Place Temperature

Stations

Nearby Weather Stations

Station Location Temp. Windchill Dew Point Humidity Wind Precip. Elev Updated Type